sensor_id;sensor_type;location;lat;lon;timestamp;P1;durP1;ratioP1;P2;durP2;ratioP2
14171;SDS011;7165;52.388;4.928;2023-05-10T00:00:31;33.00;;;29.88;;
14171;SDS011;7165;52.388;4.928;2023-05-10T00:02:58;30.73;;;27.88;;
14171;SDS011;7165;52.388;4.928;2023-05-10T00:05:25;29.95;;;27.05;;
14171;SDS011;7165;52.388;4.928;2023-05-10T00:07:52;31.17;;;28.33;;
14171;SDS011;7165;52.388;4.928;2023-05-10T00:10:18;33.03;;;29.52;;
14171;SDS011;7165;52.388;4.928;2023-05-10T00:12:46;30.83;;;27.55;;
14171;SDS011;7165;52.388;4.928;2023-05-10T00:15:13;31.27;;;28.27;;
14171;SDS011;7165;52.388;4.928;2023-05-10T00:17:40;32.28;;;28.75;;
14171;SDS011;7165;52.388;4.928;2023-05-10T00:20:07;33.17;;;29.77;;
14171;SDS011;7165;52.388;4.928;2023-05-10T00:22:35;31.15;;;28.23;;
14171;SDS011;7165;52.388;4.928;2023-05-10T00:25:02;30.75;;;27.85;;
14171;SDS011;7165;52.388;4.928;2023-05-10T00:27:29;31.33;;;28.35;;
14171;SDS011;7165;52.388;4.928;2023-05-10T00:29:57;29.77;;;26.83;;
14171;SDS011;7165;52.388;4.928;2023-05-10T00:32:24;30.38;;;27.30;;
14171;SDS011;7165;52.388;4.928;2023-05-10T00:34:50;29.55;;;26.60;;
14171;SDS011;7165;52.388;4.928;2023-05-10T00:37:17;30.65;;;27.63;;
14171;SDS011;7165;52.388;4.928;2023-05-10T00:39:44;33.63;;;30.20;;
14171;SDS011;7165;52.388;4.928;2023-05-10T00:42:10;31.48;;;28.42;;
14171;SDS011;7165;52.388;4.928;2023-05-10T00:44:37;34.28;;;31.10;;
14171;SDS011;7165;52.388;4.928;2023-05-10T00:47:05;34.10;;;30.77;;
14171;SDS011;7165;52.388;4.928;2023-05-10T00:49:32;37.75;;;34.15;;
14171;SDS011;7165;52.388;4.928;2023-05-10T00:51:59;31.73;;;28.52;;
14171;SDS011;7165;52.388;4.928;2023-05-10T00:54:27;34.38;;;30.88;;
14171;SDS011;7165;52.388;4.928;2023-05-10T00:56:53;36.60;;;33.05;;
14171;SDS011;7165;52.388;4.928;2023-05-10T00:59:22;37.15;;;33.50;;
14171;SDS011;7165;52.388;4.928;2023-05-10T01:01:48;33.05;;;29.95;;
14171;SDS011;7165;52.388;4.928;2023-05-10T01:04:17;34.53;;;30.90;;
14171;SDS011;7165;52.388;4.928;2023-05-10T01:06:50;35.53;;;31.80;;
14171;SDS011;7165;52.388;4.928;2023-05-10T01:09:18;34.17;;;30.80;;
14171;SDS011;7165;52.388;4.928;2023-05-10T01:11:45;33.95;;;30.48;;
14171;SDS011;7165;52.388;4.928;2023-05-10T01:14:13;33.38;;;30.25;;
14171;SDS011;7165;52.388;4.928;2023-05-10T01:16:40;34.35;;;30.67;;
14171;SDS011;7165;52.388;4.928;2023-05-10T01:19:12;35.63;;;31.83;;
14171;SDS011;7165;52.388;4.928;2023-05-10T01:21:48;35.80;;;32.00;;
14171;SDS011;7165;52.388;4.928;2023-05-10T01:24:40;34.40;;;30.85;;
14171;SDS011;7165;52.388;4.928;2023-05-10T01:27:35;35.58;;;32.00;;
14171;SDS011;7165;52.388;4.928;2023-05-10T01:30:19;33.60;;;30.10;;
14171;SDS011;7165;52.388;4.928;2023-05-10T01:33:09;34.35;;;30.83;;
14171;SDS011;7165;52.388;4.928;2023-05-10T01:35:41;32.38;;;29.10;;
14171;SDS011;7165;52.388;4.928;2023-05-10T01:38:15;31.15;;;27.98;;
14171;SDS011;7165;52.388;4.928;2023-05-10T01:40:48;34.08;;;30.77;;
14171;SDS011;7165;52.388;4.928;2023-05-10T01:43:26;33.95;;;30.58;;
14171;SDS011;7165;52.388;4.928;2023-05-10T01:45:59;33.60;;;30.40;;
14171;SDS011;7165;52.388;4.928;2023-05-10T01:48:36;35.45;;;31.83;;
14171;SDS011;7165;52.388;4.928;2023-05-10T01:51:06;37.05;;;33.28;;
14171;SDS011;7165;52.388;4.928;2023-05-10T01:53:34;34.42;;;31.00;;
14171;SDS011;7165;52.388;4.928;2023-05-10T01:56:04;35.25;;;31.80;;
14171;SDS011;7165;52.388;4.928;2023-05-10T01:58:33;38.67;;;34.78;;
14171;SDS011;7165;52.388;4.928;2023-05-10T02:01:03;40.88;;;35.40;;
14171;SDS011;7165;52.388;4.928;2023-05-10T02:03:31;38.20;;;34.47;;
14171;SDS011;7165;52.388;4.928;2023-05-10T02:06:01;40.22;;;36.08;;
14171;SDS011;7165;52.388;4.928;2023-05-10T02:08:29;36.70;;;32.88;;
14171;SDS011;7165;52.388;4.928;2023-05-10T02:10:57;40.30;;;35.88;;
14171;SDS011;7165;52.388;4.928;2023-05-10T02:13:25;37.33;;;33.53;;
14171;SDS011;7165;52.388;4.928;2023-05-10T02:15:53;42.33;;;36.13;;
14171;SDS011;7165;52.388;4.928;2023-05-10T02:18:21;39.80;;;35.55;;
14171;SDS011;7165;52.388;4.928;2023-05-10T02:20:50;39.33;;;35.15;;
14171;SDS011;7165;52.388;4.928;2023-05-10T02:23:19;42.08;;;37.50;;
14171;SDS011;7165;52.388;4.928;2023-05-10T02:25:47;41.92;;;37.47;;
14171;SDS011;7165;52.388;4.928;2023-05-10T02:28:15;43.72;;;37.60;;
14171;SDS011;7165;52.388;4.928;2023-05-10T02:30:43;43.88;;;36.30;;
14171;SDS011;7165;52.388;4.928;2023-05-10T02:33:10;42.65;;;35.95;;
14171;SDS011;7165;52.388;4.928;2023-05-10T02:35:37;43.70;;;36.15;;
14171;SDS011;7165;52.388;4.928;2023-05-10T02:38:04;47.90;;;38.15;;
14171;SDS011;7165;52.388;4.928;2023-05-10T02:40:33;49.10;;;35.75;;
14171;SDS011;7165;52.388;4.928;2023-05-10T02:43:02;43.35;;;37.13;;
14171;SDS011;7165;52.388;4.928;2023-05-10T02:45:31;44.33;;;36.35;;
14171;SDS011;7165;52.388;4.928;2023-05-10T02:48:01;47.85;;;37.65;;
14171;SDS011;7165;52.388;4.928;2023-05-10T02:50:28;41.15;;;35.78;;
14171;SDS011;7165;52.388;4.928;2023-05-10T02:52:59;42.50;;;35.05;;
14171;SDS011;7165;52.388;4.928;2023-05-10T02:55:31;41.65;;;34.13;;
14171;SDS011;7165;52.388;4.928;2023-05-10T02:58:02;39.40;;;34.00;;
14171;SDS011;7165;52.388;4.928;2023-05-10T03:00:30;40.72;;;35.35;;
14171;SDS011;7165;52.388;4.928;2023-05-10T03:02:57;41.08;;;35.72;;
14171;SDS011;7165;52.388;4.928;2023-05-10T03:05:24;45.38;;;36.40;;
14171;SDS011;7165;52.388;4.928;2023-05-10T03:07:51;42.33;;;35.00;;
14171;SDS011;7165;52.388;4.928;2023-05-10T03:10:19;40.78;;;33.97;;
14171;SDS011;7165;52.388;4.928;2023-05-10T03:12:57;46.20;;;35.25;;
14171;SDS011;7165;52.388;4.928;2023-05-10T03:15:36;42.28;;;36.33;;
14171;SDS011;7165;52.388;4.928;2023-05-10T03:18:11;37.65;;;31.58;;
14171;SDS011;7165;52.388;4.928;2023-05-10T03:20:43;43.10;;;31.35;;
14171;SDS011;7165;52.388;4.928;2023-05-10T03:23:17;39.03;;;32.42;;
14171;SDS011;7165;52.388;4.928;2023-05-10T03:25:49;44.30;;;33.35;;
14171;SDS011;7165;52.388;4.928;2023-05-10T03:28:18;41.38;;;30.40;;
14171;SDS011;7165;52.388;4.928;2023-05-10T03:30:46;40.88;;;35.05;;
14171;SDS011;7165;52.388;4.928;2023-05-10T03:33:13;41.55;;;31.83;;
14171;SDS011;7165;52.388;4.928;2023-05-10T03:35:40;37.60;;;28.30;;
14171;SDS011;7165;52.388;4.928;2023-05-10T03:38:07;39.72;;;28.42;;
14171;SDS011;7165;52.388;4.928;2023-05-10T03:40:33;41.00;;;29.30;;
14171;SDS011;7165;52.388;4.928;2023-05-10T03:43:00;38.85;;;29.48;;
14171;SDS011;7165;52.388;4.928;2023-05-10T03:45:28;39.97;;;30.88;;
14171;SDS011;7165;52.388;4.928;2023-05-10T03:47:55;43.30;;;32.05;;
14171;SDS011;7165;52.388;4.928;2023-05-10T03:50:23;38.45;;;29.13;;
14171;SDS011;7165;52.388;4.928;2023-05-10T03:52:51;41.88;;;29.70;;
14171;SDS011;7165;52.388;4.928;2023-05-10T03:55:17;34.10;;;26.98;;
14171;SDS011;7165;52.388;4.928;2023-05-10T03:57:44;23.30;;;20.85;;
14171;SDS011;7165;52.388;4.928;2023-05-10T04:00:17;30.27;;;23.98;;
14171;SDS011;7165;52.388;4.928;2023-05-10T04:02:45;33.47;;;28.05;;
14171;SDS011;7165;52.388;4.928;2023-05-10T04:05:12;33.45;;;28.27;;
14171;SDS011;7165;52.388;4.928;2023-05-10T04:07:39;39.63;;;30.48;;
14171;SDS011;7165;52.388;4.928;2023-05-10T04:10:06;44.42;;;34.03;;
14171;SDS011;7165;52.388;4.928;2023-05-10T04:12:33;40.50;;;33.40;;
14171;SDS011;7165;52.388;4.928;2023-05-10T04:15:00;48.38;;;36.15;;
14171;SDS011;7165;52.388;4.928;2023-05-10T04:17:27;44.25;;;35.22;;
14171;SDS011;7165;52.388;4.928;2023-05-10T04:19:55;42.05;;;35.15;;
14171;SDS011;7165;52.388;4.928;2023-05-10T04:22:22;42.08;;;33.45;;
14171;SDS011;7165;52.388;4.928;2023-05-10T04:24:48;46.28;;;34.72;;
14171;SDS011;7165;52.388;4.928;2023-05-10T04:27:15;42.60;;;34.10;;
14171;SDS011;7165;52.388;4.928;2023-05-10T04:29:42;40.65;;;34.08;;
14171;SDS011;7165;52.388;4.928;2023-05-10T04:32:09;38.55;;;32.67;;
14171;SDS011;7165;52.388;4.928;2023-05-10T04:34:36;42.75;;;34.67;;
14171;SDS011;7165;52.388;4.928;2023-05-10T04:37:04;40.53;;;32.50;;
14171;SDS011;7165;52.388;4.928;2023-05-10T04:39:32;40.90;;;34.05;;
14171;SDS011;7165;52.388;4.928;2023-05-10T04:41:59;42.78;;;33.33;;
14171;SDS011;7165;52.388;4.928;2023-05-10T04:44:25;45.08;;;35.28;;
14171;SDS011;7165;52.388;4.928;2023-05-10T04:46:52;41.50;;;33.50;;
14171;SDS011;7165;52.388;4.928;2023-05-10T04:49:19;45.88;;;36.28;;
14171;SDS011;7165;52.388;4.928;2023-05-10T04:51:46;46.42;;;33.13;;
14171;SDS011;7165;52.388;4.928;2023-05-10T04:54:14;50.05;;;33.58;;
14171;SDS011;7165;52.388;4.928;2023-05-10T04:56:41;43.78;;;33.85;;
14171;SDS011;7165;52.388;4.928;2023-05-10T04:59:08;43.38;;;32.40;;
14171;SDS011;7165;52.388;4.928;2023-05-10T05:01:34;37.70;;;30.63;;
14171;SDS011;7165;52.388;4.928;2023-05-10T05:04:01;37.53;;;29.85;;
14171;SDS011;7165;52.388;4.928;2023-05-10T05:06:28;37.00;;;28.63;;
14171;SDS011;7165;52.388;4.928;2023-05-10T05:08:55;34.53;;;26.70;;
14171;SDS011;7165;52.388;4.928;2023-05-10T05:11:23;35.25;;;27.95;;
14171;SDS011;7165;52.388;4.928;2023-05-10T05:13:50;35.58;;;27.90;;
14171;SDS011;7165;52.388;4.928;2023-05-10T05:16:17;33.55;;;26.13;;
14171;SDS011;7165;52.388;4.928;2023-05-10T05:18:43;33.80;;;27.30;;
14171;SDS011;7165;52.388;4.928;2023-05-10T05:21:13;37.72;;;28.20;;
14171;SDS011;7165;52.388;4.928;2023-05-10T05:23:40;32.55;;;27.00;;
14171;SDS011;7165;52.388;4.928;2023-05-10T05:26:07;32.10;;;24.85;;
14171;SDS011;7165;52.388;4.928;2023-05-10T05:28:35;31.45;;;26.50;;
14171;SDS011;7165;52.388;4.928;2023-05-10T05:31:03;27.60;;;23.77;;
14171;SDS011;7165;52.388;4.928;2023-05-10T05:33:30;31.38;;;25.88;;
14171;SDS011;7165;52.388;4.928;2023-05-10T05:35:57;27.15;;;23.48;;
14171;SDS011;7165;52.388;4.928;2023-05-10T05:38:26;25.65;;;22.30;;
14171;SDS011;7165;52.388;4.928;2023-05-10T05:40:52;28.15;;;24.60;;
14171;SDS011;7165;52.388;4.928;2023-05-10T05:43:19;24.63;;;20.88;;
14171;SDS011;7165;52.388;4.928;2023-05-10T05:45:47;22.33;;;19.83;;
14171;SDS011;7165;52.388;4.928;2023-05-10T05:48:14;21.52;;;19.23;;
14171;SDS011;7165;52.388;4.928;2023-05-10T05:50:40;21.52;;;19.15;;
14171;SDS011;7165;52.388;4.928;2023-05-10T05:53:07;22.58;;;20.05;;
14171;SDS011;7165;52.388;4.928;2023-05-10T05:55:35;21.02;;;18.73;;
14171;SDS011;7165;52.388;4.928;2023-05-10T05:58:01;21.73;;;19.30;;
14171;SDS011;7165;52.388;4.928;2023-05-10T06:00:28;23.60;;;21.15;;
14171;SDS011;7165;52.388;4.928;2023-05-10T06:02:56;23.60;;;20.85;;
14171;SDS011;7165;52.388;4.928;2023-05-10T06:05:23;22.92;;;20.42;;
14171;SDS011;7165;52.388;4.928;2023-05-10T06:07:50;20.60;;;18.42;;
14171;SDS011;7165;52.388;4.928;2023-05-10T06:10:16;21.92;;;19.13;;
14171;SDS011;7165;52.388;4.928;2023-05-10T06:12:43;21.02;;;18.55;;
14171;SDS011;7165;52.388;4.928;2023-05-10T06:15:10;20.95;;;18.70;;
14171;SDS011;7165;52.388;4.928;2023-05-10T06:17:37;22.77;;;19.02;;
14171;SDS011;7165;52.388;4.928;2023-05-10T06:20:07;23.23;;;18.92;;
14171;SDS011;7165;52.388;4.928;2023-05-10T06:22:34;20.48;;;18.45;;
14171;SDS011;7165;52.388;4.928;2023-05-10T06:25:01;20.92;;;18.75;;
14171;SDS011;7165;52.388;4.928;2023-05-10T06:27:28;22.13;;;19.90;;
14171;SDS011;7165;52.388;4.928;2023-05-10T06:29:54;21.05;;;18.77;;
14171;SDS011;7165;52.388;4.928;2023-05-10T06:32:21;21.25;;;18.77;;
14171;SDS011;7165;52.388;4.928;2023-05-10T06:34:48;23.25;;;19.40;;
14171;SDS011;7165;52.388;4.928;2023-05-10T06:37:16;27.67;;;21.90;;
14171;SDS011;7165;52.388;4.928;2023-05-10T06:39:43;22.20;;;19.88;;
14171;SDS011;7165;52.388;4.928;2023-05-10T06:42:09;19.90;;;17.83;;
14171;SDS011;7165;52.388;4.928;2023-05-10T06:44:36;21.63;;;19.08;;
14171;SDS011;7165;52.388;4.928;2023-05-10T06:47:03;22.77;;;19.02;;
14171;SDS011;7165;52.388;4.928;2023-05-10T06:49:30;20.73;;;18.45;;
14171;SDS011;7165;52.388;4.928;2023-05-10T06:51:56;20.67;;;18.20;;
14171;SDS011;7165;52.388;4.928;2023-05-10T06:54:24;17.75;;;16.00;;
14171;SDS011;7165;52.388;4.928;2023-05-10T06:56:51;18.20;;;15.88;;
14171;SDS011;7165;52.388;4.928;2023-05-10T06:59:18;18.08;;;15.38;;
14171;SDS011;7165;52.388;4.928;2023-05-10T07:01:46;18.95;;;16.05;;
14171;SDS011;7165;52.388;4.928;2023-05-10T07:04:13;19.80;;;16.38;;
14171;SDS011;7165;52.388;4.928;2023-05-10T07:06:39;17.20;;;15.23;;
14171;SDS011;7165;52.388;4.928;2023-05-10T07:09:06;17.02;;;15.25;;
14171;SDS011;7165;52.388;4.928;2023-05-10T07:11:35;18.08;;;15.48;;
14171;SDS011;7165;52.388;4.928;2023-05-10T07:14:02;21.58;;;17.73;;
14171;SDS011;7165;52.388;4.928;2023-05-10T07:16:29;21.48;;;17.48;;
14171;SDS011;7165;52.388;4.928;2023-05-10T07:18:55;18.00;;;16.20;;
14171;SDS011;7165;52.388;4.928;2023-05-10T07:21:22;17.30;;;15.60;;
14171;SDS011;7165;52.388;4.928;2023-05-10T07:23:49;18.00;;;16.25;;
14171;SDS011;7165;52.388;4.928;2023-05-10T07:26:16;19.02;;;16.95;;
14171;SDS011;7165;52.388;4.928;2023-05-10T07:28:44;20.00;;;18.05;;
14171;SDS011;7165;52.388;4.928;2023-05-10T07:31:11;20.98;;;18.73;;
14171;SDS011;7165;52.388;4.928;2023-05-10T07:33:39;20.00;;;16.85;;
14171;SDS011;7165;52.388;4.928;2023-05-10T07:36:06;20.38;;;18.40;;
14171;SDS011;7165;52.388;4.928;2023-05-10T07:38:33;20.77;;;18.67;;
14171;SDS011;7165;52.388;4.928;2023-05-10T07:40:59;19.85;;;17.88;;
14171;SDS011;7165;52.388;4.928;2023-05-10T07:43:26;21.13;;;18.98;;
14171;SDS011;7165;52.388;4.928;2023-05-10T07:45:54;20.42;;;18.50;;
14171;SDS011;7165;52.388;4.928;2023-05-10T07:48:22;19.83;;;18.05;;
14171;SDS011;7165;52.388;4.928;2023-05-10T07:50:49;22.85;;;20.33;;
14171;SDS011;7165;52.388;4.928;2023-05-10T07:53:15;21.98;;;19.95;;
14171;SDS011;7165;52.388;4.928;2023-05-10T07:55:43;23.58;;;21.08;;
14171;SDS011;7165;52.388;4.928;2023-05-10T08:10:25;15.85;;;14.35;;
14171;SDS011;7165;52.388;4.928;2023-05-10T08:12:52;16.27;;;14.88;;
14171;SDS011;7165;52.388;4.928;2023-05-10T08:15:18;20.73;;;14.98;;
14171;SDS011;7165;52.388;4.928;2023-05-10T08:17:45;14.68;;;13.38;;
14171;SDS011;7165;52.388;4.928;2023-05-10T08:20:13;16.40;;;14.32;;
14171;SDS011;7165;52.388;4.928;2023-05-10T08:22:41;14.23;;;12.98;;
14171;SDS011;7165;52.388;4.928;2023-05-10T08:25:08;14.52;;;13.23;;
14171;SDS011;7165;52.388;4.928;2023-05-10T08:27:35;15.07;;;13.70;;
14171;SDS011;7165;52.388;4.928;2023-05-10T08:30:01;14.55;;;13.15;;
14171;SDS011;7165;52.388;4.928;2023-05-10T08:32:28;13.95;;;12.70;;
14171;SDS011;7165;52.388;4.928;2023-05-10T08:34:55;14.85;;;13.52;;
14171;SDS011;7165;52.388;4.928;2023-05-10T08:37:24;15.05;;;13.65;;
14171;SDS011;7165;52.388;4.928;2023-05-10T08:39:50;14.88;;;13.48;;
14171;SDS011;7165;52.388;4.928;2023-05-10T08:42:19;12.98;;;11.77;;
14171;SDS011;7165;52.388;4.928;2023-05-10T08:44:51;14.20;;;12.18;;
14171;SDS011;7165;52.388;4.928;2023-05-10T08:47:19;11.05;;;9.93;;
14171;SDS011;7165;52.388;4.928;2023-05-10T08:49:47;10.95;;;9.82;;
14171;SDS011;7165;52.388;4.928;2023-05-10T08:52:16;11.77;;;10.63;;
14171;SDS011;7165;52.388;4.928;2023-05-10T08:54:45;8.80;;;7.95;;
14171;SDS011;7165;52.388;4.928;2023-05-10T08:57:12;9.77;;;8.93;;
14171;SDS011;7165;52.388;4.928;2023-05-10T08:59:39;9.18;;;8.07;;
14171;SDS011;7165;52.388;4.928;2023-05-10T09:02:06;9.10;;;8.30;;
14171;SDS011;7165;52.388;4.928;2023-05-10T09:24:11;9.40;;;8.50;;
14171;SDS011;7165;52.388;4.928;2023-05-10T09:29:21;6.50;;;5.90;;
14171;SDS011;7165;52.388;4.928;2023-05-10T09:31:49;6.53;;;5.93;;
14171;SDS011;7165;52.388;4.928;2023-05-10T09:34:17;6.38;;;5.88;;
14171;SDS011;7165;52.388;4.928;2023-05-10T09:36:50;6.85;;;5.47;;
14171;SDS011;7165;52.388;4.928;2023-05-10T09:39:21;4.55;;;4.15;;
14171;SDS011;7165;52.388;4.928;2023-05-10T09:41:57;5.45;;;4.95;;
14171;SDS011;7165;52.388;4.928;2023-05-10T09:44:26;5.38;;;4.53;;
14171;SDS011;7165;52.388;4.928;2023-05-10T09:46:53;5.82;;;5.32;;
14171;SDS011;7165;52.388;4.928;2023-05-10T09:49:20;6.63;;;5.75;;
14171;SDS011;7165;52.388;4.928;2023-05-10T09:51:47;5.65;;;5.15;;
14171;SDS011;7165;52.388;4.928;2023-05-10T09:54:25;6.45;;;5.88;;
14171;SDS011;7165;52.388;4.928;2023-05-10T09:56:51;6.18;;;5.57;;
14171;SDS011;7165;52.388;4.928;2023-05-10T09:59:18;6.97;;;6.32;;
14171;SDS011;7165;52.388;4.928;2023-05-10T10:01:50;8.05;;;5.88;;
14171;SDS011;7165;52.388;4.928;2023-05-10T10:04:17;6.18;;;5.57;;
14171;SDS011;7165;52.388;4.928;2023-05-10T10:06:45;6.10;;;5.50;;
14171;SDS011;7165;52.388;4.928;2023-05-10T10:09:12;5.53;;;4.95;;
14171;SDS011;7165;52.388;4.928;2023-05-10T10:11:40;5.63;;;5.07;;
14171;SDS011;7165;52.388;4.928;2023-05-10T10:14:07;6.93;;;6.30;;
14171;SDS011;7165;52.388;4.928;2023-05-10T10:16:34;5.07;;;4.57;;
14171;SDS011;7165;52.388;4.928;2023-05-10T10:19:02;4.82;;;4.43;;
14171;SDS011;7165;52.388;4.928;2023-05-10T10:21:29;6.43;;;4.70;;
14171;SDS011;7165;52.388;4.928;2023-05-10T10:23:56;5.90;;;4.90;;
14171;SDS011;7165;52.388;4.928;2023-05-10T10:26:22;6.10;;;5.50;;
14171;SDS011;7165;52.388;4.928;2023-05-10T10:28:51;7.88;;;5.53;;
14171;SDS011;7165;52.388;4.928;2023-05-10T10:31:27;5.90;;;5.00;;
14171;SDS011;7165;52.388;4.928;2023-05-10T10:34:03;5.72;;;5.22;;
14171;SDS011;7165;52.388;4.928;2023-05-10T10:36:32;5.13;;;4.70;;
14171;SDS011;7165;52.388;4.928;2023-05-10T10:39:08;6.90;;;5.03;;
14171;SDS011;7165;52.388;4.928;2023-05-10T10:41:36;4.95;;;4.55;;
14171;SDS011;7165;52.388;4.928;2023-05-10T10:47:22;5.53;;;5.03;;
14171;SDS011;7165;52.388;4.928;2023-05-10T10:50:02;6.70;;;5.18;;
14171;SDS011;7165;52.388;4.928;2023-05-10T10:52:30;6.05;;;4.90;;
14171;SDS011;7165;52.388;4.928;2023-05-10T10:55:00;4.70;;;4.32;;
14171;SDS011;7165;52.388;4.928;2023-05-10T10:57:31;8.30;;;5.57;;
14171;SDS011;7165;52.388;4.928;2023-05-10T11:02:51;5.78;;;4.82;;
14171;SDS011;7165;52.388;4.928;2023-05-10T11:05:24;5.30;;;4.82;;
14171;SDS011;7165;52.388;4.928;2023-05-10T11:08:00;6.00;;;4.78;;
14171;SDS011;7165;52.388;4.928;2023-05-10T11:10:33;8.05;;;5.93;;
14171;SDS011;7165;52.388;4.928;2023-05-10T11:13:01;5.63;;;5.13;;
14171;SDS011;7165;52.388;4.928;2023-05-10T11:15:29;5.28;;;4.78;;
14171;SDS011;7165;52.388;4.928;2023-05-10T11:17:56;6.18;;;5.55;;
14171;SDS011;7165;52.388;4.928;2023-05-10T11:20:25;5.75;;;4.78;;
14171;SDS011;7165;52.388;4.928;2023-05-10T11:22:59;11.32;;;9.90;;
14171;SDS011;7165;52.388;4.928;2023-05-10T11:25:41;8.48;;;7.18;;
14171;SDS011;7165;52.388;4.928;2023-05-10T11:28:09;8.02;;;7.25;;
14171;SDS011;7165;52.388;4.928;2023-05-10T11:30:36;7.90;;;6.97;;
14171;SDS011;7165;52.388;4.928;2023-05-10T11:33:04;8.15;;;5.95;;
14171;SDS011;7165;52.388;4.928;2023-05-10T11:35:32;6.70;;;6.07;;
14171;SDS011;7165;52.388;4.928;2023-05-10T11:38:04;9.45;;;8.48;;
14171;SDS011;7165;52.388;4.928;2023-05-10T11:40:32;11.65;;;10.45;;
14171;SDS011;7165;52.388;4.928;2023-05-10T11:42:59;12.45;;;10.75;;
14171;SDS011;7165;52.388;4.928;2023-05-10T11:45:26;15.48;;;13.90;;
14171;SDS011;7165;52.388;4.928;2023-05-10T11:47:53;17.70;;;13.85;;
14171;SDS011;7165;52.388;4.928;2023-05-10T11:50:21;16.85;;;15.05;;
14171;SDS011;7165;52.388;4.928;2023-05-10T11:52:51;16.77;;;15.00;;
14171;SDS011;7165;52.388;4.928;2023-05-10T11:55:18;16.80;;;15.00;;
14171;SDS011;7165;52.388;4.928;2023-05-10T11:57:45;16.25;;;14.48;;
14171;SDS011;7165;52.388;4.928;2023-05-10T12:00:12;16.45;;;12.45;;
14171;SDS011;7165;52.388;4.928;2023-05-10T12:02:39;15.43;;;12.63;;
14171;SDS011;7165;52.388;4.928;2023-05-10T12:05:06;15.95;;;10.98;;
14171;SDS011;7165;52.388;4.928;2023-05-10T12:07:34;13.38;;;10.35;;
14171;SDS011;7165;52.388;4.928;2023-05-10T12:10:09;13.55;;;12.20;;
14171;SDS011;7165;52.388;4.928;2023-05-10T12:12:39;13.93;;;11.45;;
14171;SDS011;7165;52.388;4.928;2023-05-10T12:15:10;14.98;;;12.00;;
14171;SDS011;7165;52.388;4.928;2023-05-10T12:17:38;11.95;;;10.30;;
14171;SDS011;7165;52.388;4.928;2023-05-10T12:20:19;8.75;;;7.85;;
14171;SDS011;7165;52.388;4.928;2023-05-10T12:22:48;9.18;;;7.80;;
14171;SDS011;7165;52.388;4.928;2023-05-10T12:25:18;9.98;;;7.88;;
14171;SDS011;7165;52.388;4.928;2023-05-10T12:27:50;10.15;;;9.00;;
14171;SDS011;7165;52.388;4.928;2023-05-10T12:30:21;6.78;;;6.00;;
14171;SDS011;7165;52.388;4.928;2023-05-10T12:32:48;6.72;;;5.25;;
14171;SDS011;7165;52.388;4.928;2023-05-10T12:37:45;10.60;;;4.10;;
14171;SDS011;7165;52.388;4.928;2023-05-10T12:40:12;6.47;;;3.72;;
14171;SDS011;7165;52.388;4.928;2023-05-10T12:42:40;7.22;;;4.93;;
14171;SDS011;7165;52.388;4.928;2023-05-10T12:45:07;7.23;;;6.50;;
14171;SDS011;7165;52.388;4.928;2023-05-10T12:47:35;6.13;;;5.53;;
14171;SDS011;7165;52.388;4.928;2023-05-10T12:52:30;7.07;;;6.38;;
14171;SDS011;7165;52.388;4.928;2023-05-10T12:54:57;5.28;;;4.63;;
14171;SDS011;7165;52.388;4.928;2023-05-10T12:59:58;6.00;;;5.50;;
14171;SDS011;7165;52.388;4.928;2023-05-10T13:02:25;4.90;;;4.50;;
14171;SDS011;7165;52.388;4.928;2023-05-10T13:04:52;5.47;;;4.35;;
14171;SDS011;7165;52.388;4.928;2023-05-10T13:07:19;4.70;;;3.88;;
14171;SDS011;7165;52.388;4.928;2023-05-10T13:09:45;7.88;;;6.68;;
14171;SDS011;7165;52.388;4.928;2023-05-10T14:08:35;7.95;;;6.97;;
14171;SDS011;7165;52.388;4.928;2023-05-10T14:11:02;6.65;;;6.05;;
14171;SDS011;7165;52.388;4.928;2023-05-10T14:13:28;6.65;;;5.30;;
14171;SDS011;7165;52.388;4.928;2023-05-10T14:15:55;6.20;;;5.40;;
14171;SDS011;7165;52.388;4.928;2023-05-10T14:18:22;6.70;;;5.90;;
14171;SDS011;7165;52.388;4.928;2023-05-10T14:20:48;5.85;;;4.63;;
14171;SDS011;7165;52.388;4.928;2023-05-10T14:23:15;4.90;;;3.95;;
14171;SDS011;7165;52.388;4.928;2023-05-10T14:25:43;5.43;;;4.57;;
14171;SDS011;7165;52.388;4.928;2023-05-10T14:42:52;5.25;;;4.85;;
14171;SDS011;7165;52.388;4.928;2023-05-10T14:45:19;5.22;;;4.35;;
14171;SDS011;7165;52.388;4.928;2023-05-10T14:47:46;3.40;;;2.97;;
14171;SDS011;7165;52.388;4.928;2023-05-10T14:50:13;3.90;;;3.60;;
14171;SDS011;7165;52.388;4.928;2023-05-10T14:52:41;5.25;;;3.60;;
14171;SDS011;7165;52.388;4.928;2023-05-10T14:55:08;3.20;;;2.90;;
14171;SDS011;7165;52.388;4.928;2023-05-10T14:57:35;3.85;;;3.45;;
14171;SDS011;7165;52.388;4.928;2023-05-10T15:00:03;4.47;;;4.07;;
14171;SDS011;7165;52.388;4.928;2023-05-10T15:02:31;4.97;;;4.57;;
14171;SDS011;7165;52.388;4.928;2023-05-10T15:04:58;5.68;;;5.18;;
14171;SDS011;7165;52.388;4.928;2023-05-10T15:07:24;4.97;;;4.47;;
14171;SDS011;7165;52.388;4.928;2023-05-10T15:09:51;5.60;;;5.10;;
14171;SDS011;7165;52.388;4.928;2023-05-10T15:12:19;6.90;;;6.22;;
14171;SDS011;7165;52.388;4.928;2023-05-10T15:14:46;6.18;;;5.68;;
14171;SDS011;7165;52.388;4.928;2023-05-10T15:17:14;8.30;;;7.53;;
14171;SDS011;7165;52.388;4.928;2023-05-10T15:19:44;8.20;;;7.40;;
14171;SDS011;7165;52.388;4.928;2023-05-10T15:22:10;7.85;;;6.63;;
14171;SDS011;7165;52.388;4.928;2023-05-10T15:24:37;8.73;;;7.28;;
14171;SDS011;7165;52.388;4.928;2023-05-10T15:27:04;7.90;;;7.10;;
14171;SDS011;7165;52.388;4.928;2023-05-10T15:29:30;7.22;;;6.20;;
14171;SDS011;7165;52.388;4.928;2023-05-10T15:31:59;7.75;;;6.65;;
14171;SDS011;7165;52.388;4.928;2023-05-10T15:34:28;9.10;;;7.18;;
14171;SDS011;7165;52.388;4.928;2023-05-10T15:36:55;7.60;;;6.80;;
14171;SDS011;7165;52.388;4.928;2023-05-10T15:39:22;6.28;;;5.45;;
14171;SDS011;7165;52.388;4.928;2023-05-10T15:41:48;5.97;;;5.38;;
14171;SDS011;7165;52.388;4.928;2023-05-10T15:44:16;4.32;;;3.90;;
14171;SDS011;7165;52.388;4.928;2023-05-10T15:46:43;4.80;;;4.40;;
14171;SDS011;7165;52.388;4.928;2023-05-10T15:49:10;5.20;;;4.32;;
14171;SDS011;7165;52.388;4.928;2023-05-10T15:51:38;4.82;;;4.43;;
14171;SDS011;7165;52.388;4.928;2023-05-10T15:54:05;5.57;;;4.68;;
14171;SDS011;7165;52.388;4.928;2023-05-10T15:56:32;4.82;;;4.43;;
14171;SDS011;7165;52.388;4.928;2023-05-10T15:58:59;4.60;;;3.22;;
14171;SDS011;7165;52.388;4.928;2023-05-10T16:01:25;4.15;;;3.55;;
14171;SDS011;7165;52.388;4.928;2023-05-10T16:03:52;3.95;;;3.40;;
14171;SDS011;7165;52.388;4.928;2023-05-10T16:06:19;3.50;;;3.20;;
14171;SDS011;7165;52.388;4.928;2023-05-10T16:08:47;3.88;;;3.58;;
14171;SDS011;7165;52.388;4.928;2023-05-10T16:11:14;3.97;;;3.42;;
14171;SDS011;7165;52.388;4.928;2023-05-10T16:13:41;4.50;;;4.03;;
14171;SDS011;7165;52.388;4.928;2023-05-10T16:16:07;5.10;;;4.57;;
14171;SDS011;7165;52.388;4.928;2023-05-10T16:18:34;4.10;;;3.78;;
14171;SDS011;7165;52.388;4.928;2023-05-10T16:21:01;5.20;;;4.70;;
14171;SDS011;7165;52.388;4.928;2023-05-10T16:23:27;4.35;;;3.95;;
14171;SDS011;7165;52.388;4.928;2023-05-10T16:25:56;8.40;;;5.70;;
14171;SDS011;7165;52.388;4.928;2023-05-10T16:28:22;5.50;;;5.00;;
14171;SDS011;7165;52.388;4.928;2023-05-10T16:30:49;5.95;;;5.40;;
14171;SDS011;7165;52.388;4.928;2023-05-10T16:33:16;6.70;;;6.10;;
14171;SDS011;7165;52.388;4.928;2023-05-10T16:35:43;6.20;;;5.55;;
14171;SDS011;7165;52.388;4.928;2023-05-10T16:38:10;7.43;;;6.65;;
14171;SDS011;7165;52.388;4.928;2023-05-10T16:40:36;7.68;;;6.00;;
14171;SDS011;7165;52.388;4.928;2023-05-10T16:43:04;7.68;;;6.97;;
14171;SDS011;7165;52.388;4.928;2023-05-10T16:45:31;6.38;;;5.78;;
14171;SDS011;7165;52.388;4.928;2023-05-10T16:47:58;6.60;;;5.95;;